메인 페이지
METAR-TAF:

METAR-TAF

공항 :

파리 샤를 드 골 공항

파리찰스 드골, 프랑스

위도: 49-01N, 경도: 002-32E, 고도: 118m

현재 날씨관측

예보는 43분 전, 23:30시(UTC)에 발표되었습니다.
동북동10kt
온도 7°C
습도 57%
기압 1033 hPa
시정 10km 이상
1500m 미만 상공 구름 및 적란운 없음

METAR: LFPG 232330Z 07010KT CAVOK 07/M01 Q1033 NOSIG

시각: 01:13 (00:13 UTC)

예보

예보는 1 시간 13분 전, 23:00시(UTC)에 발표되었습니다.
예보 대상 시간: 24일 00시부터 25일 06시까지 (UTC)
북동5kt
시정 10km 이상
1500m 미만 상공 구름 및 적란운 없음

TAF: LFPG 232300Z 2400/2506 05005KT CAVOK TX13/2414Z TN02/2403Z

4,000개 이상의 공항 관측 자료 및 예보 (METAR 및 TAF 보고).

지도상에서 검색 가능한 기상관측소가 노란 점과 빨간 점으로 표시되어 있습니다.

기상관측소 명을 보려면 표시 위로 마우스를 이동하세요.

날씨 관측과 예보를 보려면 클릭하세요.

지도 변경 : 확대하려면 엑스 표시가 있는 녹색 버튼, 축소하려면 빼기 표시가 있는 녹색 버튼, 다음 페이지의 지도를 보려면 녹색 화살표를 클릭하세요.


METAR-TAF: